This is the latest recevied weather packets stored in our database for station/object E22FEY-1. If no packets are shown the sender has not sent any weather packets the latest 1 day(s).
| Time | Temp. | Humidity | Pressure | Rain* | Wind** | Luminosity | Snow |
|---|---|---|---|---|---|---|---|
| 1778087020 | 34.44° C | 57% | 1007 hPa | - | - | 0 W/m² | - |
| 1778086423 | 35° C | 56% | 1007 hPa | - | - | 0 W/m² | - |
| 1778086131 | 34.44° C | 56% | 1007 hPa | - | - | 0 W/m² | - |
| 1778086033 | 34.44° C | 56% | 1007 hPa | - | - | 0 W/m² | - |
| 1778085639 | 34.44° C | 55% | 1007 hPa | - | - | 0 W/m² | - |
| 1778085454 | 33.89° C | 57% | 1007 hPa | - | - | 0 W/m² | - |
| 1778085273 | 33.89° C | 57% | 1007 hPa | - | - | 0 W/m² | - |
| 1778085070 | 33.89° C | 57% | 1007 hPa | - | - | 0 W/m² | - |
| 1778084783 | 34.44° C | 54% | 1007 hPa | - | - | 0 W/m² | - |
| 1778084110 | 35.56° C | 52% | 1008 hPa | - | - | 0 W/m² | - |
| 1778083852 | 35° C | 53% | 1008 hPa | - | - | 0 W/m² | - |
| 1778083671 | 34.44° C | 54% | 1008 hPa | - | - | 0 W/m² | - |
| 1778083477 | 34.44° C | 53% | 1008 hPa | - | - | 0 W/m² | - |
| 1778083294 | 35° C | 52% | 1008 hPa | - | - | 0 W/m² | - |
| 1778082853 | 35° C | 52% | 1008 hPa | - | - | 0 W/m² | - |
| 1778082501 | 33.89° C | 54% | 1008 hPa | - | - | 0 W/m² | - |
| 1778082402 | 33.89° C | 55% | 1008 hPa | - | - | 0 W/m² | - |
| 1778081563 | 35° C | 52% | 1008 hPa | - | - | 0 W/m² | - |
| 1778081481 | 34.44° C | 53% | 1008 hPa | - | - | 0 W/m² | - |
| 1778080265 | 35° C | 51% | 1008 hPa | - | - | 0 W/m² | - |
| 1778079979 | 35.56° C | 49% | 1008 hPa | - | - | 0 W/m² | - |
| 1778079797 | 35° C | 50% | 1007 hPa | - | - | 0 W/m² | - |
| 1778079722 | 35° C | 50% | 1007 hPa | - | - | 0 W/m² | - |
| 1778079651 | 35° C | 51% | 1007 hPa | - | - | 0 W/m² | - |
| 1778078956 | 35° C | 50% | 1008 hPa | - | - | 0 W/m² | - |
* Rain since midnight (hover to see other rain measurements)
** Current wind speed in m/s (hover to see current wind gust speed)